URMP weather

CLOSED Pyatigorsk Airport
Pyatigorsk, Stavropol Krai, Russia

Public forecast

Using degrees Celsius for public forecast. Weather courtesy of forecast.io.

METAR (pilot weather report)

Closest report is Mineralnyye Vody Airport, 10.9 nm (20.1 km) NNE. Retrieved 2019/08/21 21:30 UTC (7 minutes ago):

URMM 212130Z 08003MPS 9999 NSC 23/07 Q1012 R12/090070 NOSIG RMK QFE731/0975

TAF (pilot weather forecast)

Closest forecast is Mineralnyye Vody Airport, 10.9 nm (20.1 km) NNE. Retrieved 2019/08/21 21:21 UTC (16 minutes ago):

TAF URMM 212000Z 2121/2221 09003G08MPS 9999 NSC TX35/2212Z TN20/2203Z BECMG 2206/2208 10006G14MPS